createdAt,value
2018-08-06T00:00:03.139Z,73.59
2018-08-06T00:02:31.389Z,73.56
2018-08-06T00:04:59.708Z,72.89
2018-08-06T00:07:28.058Z,72.73
2018-08-06T00:09:58.276Z,73.01
2018-08-06T00:12:26.583Z,73.08
2018-08-06T00:14:54.863Z,72.92
2018-08-06T00:17:23.253Z,73.37
2018-08-06T00:19:51.512Z,73.25
2018-08-06T00:22:19.904Z,73.42
2018-08-06T00:24:48.166Z,73.96
2018-08-06T00:27:16.442Z,73.69
2018-08-06T00:29:44.705Z,73.71
2018-08-06T00:32:12.976Z,74.06
2018-08-06T00:34:41.247Z,74.28
2018-08-06T00:37:09.525Z,74.49
2018-08-06T00:39:37.805Z,74.94
2018-08-06T00:42:06.080Z,74.79
2018-08-06T00:44:35.417Z,75.89
2018-08-06T00:47:03.688Z,75.78
2018-08-06T00:49:31.961Z,75.64
2018-08-06T00:52:00.229Z,76.33
2018-08-06T00:54:28.509Z,76.09
2018-08-06T00:56:56.781Z,76.07
2018-08-06T00:59:25.053Z,76.91
2018-08-06T01:01:53.591Z,76.81
2018-08-06T01:04:21.904Z,76.61
2018-08-06T01:06:50.190Z,76.87
2018-08-06T01:09:18.471Z,76.76
2018-08-06T01:11:46.746Z,76.76
2018-08-06T01:14:15.161Z,76.81
2018-08-06T01:16:43.664Z,76.92
2018-08-06T01:19:13.993Z,76.93
2018-08-06T01:21:42.262Z,76.37
2018-08-06T01:24:10.552Z,76.39
2018-08-06T01:26:39.109Z,76.60
2018-08-06T01:29:07.369Z,76.70
2018-08-06T01:31:35.769Z,76.68
2018-08-06T01:34:04.061Z,76.60
2018-08-06T01:36:32.333Z,76.54
2018-08-06T01:39:00.617Z,76.53
2018-08-06T01:41:28.929Z,76.23
2018-08-06T01:43:57.201Z,76.74
2018-08-06T01:46:25.485Z,76.41
2018-08-06T01:48:53.757Z,77.29
2018-08-06T01:51:22.021Z,77.36
2018-08-06T01:53:50.315Z,76.97
2018-08-06T01:56:18.594Z,77.67
2018-08-06T01:58:46.854Z,77.42
2018-08-06T02:01:15.121Z,78.16
2018-08-06T02:03:43.385Z,78.04
2018-08-06T02:06:11.665Z,77.84
2018-08-06T02:08:39.967Z,77.99
2018-08-06T02:11:09.792Z,78.07
2018-08-06T02:13:38.057Z,78.56
2018-08-06T02:16:06.449Z,79.33
2018-08-06T02:18:34.748Z,79.43
2018-08-06T02:21:03.057Z,78.69
2018-08-06T02:23:31.383Z,78.65
2018-08-06T02:25:59.661Z,78.47
2018-08-06T02:28:27.964Z,78.98
2018-08-06T02:30:56.302Z,78.19
2018-08-06T02:33:24.629Z,77.92
2018-08-06T02:35:53.037Z,78.17
2018-08-06T02:38:21.541Z,78.01
2018-08-06T02:40:49.853Z,78.14
2018-08-06T02:43:18.105Z,77.84
2018-08-06T02:45:46.479Z,78.36
2018-08-06T02:48:14.758Z,78.30
2018-08-06T02:50:43.042Z,78.09
2018-08-06T02:53:11.332Z,78.20
2018-08-06T02:55:39.605Z,77.84
2018-08-06T02:58:07.865Z,77.98
2018-08-06T03:00:36.173Z,77.80
2018-08-06T03:03:04.477Z,78.42
2018-08-06T03:05:32.764Z,78.67
2018-08-06T03:08:01.021Z,78.27
2018-08-06T03:10:29.326Z,78.10
2018-08-06T03:12:57.612Z,77.81
2018-08-06T03:15:25.888Z,78.18
2018-08-06T03:17:54.142Z,77.88
2018-08-06T03:20:22.429Z,77.77
2018-08-06T03:22:51.289Z,78.03
2018-08-06T03:25:19.556Z,77.54
2018-08-06T03:27:47.849Z,77.92
2018-08-06T03:30:17.423Z,77.64
2018-08-06T03:32:47.013Z,77.61
2018-08-06T03:35:16.340Z,77.66
2018-08-06T03:37:44.628Z,77.90
2018-08-06T03:40:12.977Z,77.79
2018-08-06T03:42:41.352Z,78.08
2018-08-06T03:45:11.368Z,78.27
2018-08-06T03:47:40.452Z,78.54
2018-08-06T03:50:09.941Z,78.08
2018-08-06T03:52:38.199Z,78.04
2018-08-06T03:55:07.549Z,78.67
2018-08-06T03:57:35.781Z,78.08
2018-08-06T04:00:05.447Z,78.29
2018-08-06T04:02:33.722Z,78.48
2018-08-06T04:05:02.007Z,78.07
2018-08-06T04:07:30.250Z,78.08
2018-08-06T04:09:58.528Z,78.18
2018-08-06T04:12:26.781Z,78.23
2018-08-06T04:14:55.058Z,77.63
2018-08-06T04:17:23.320Z,77.29
2018-08-06T04:19:51.573Z,77.14
2018-08-06T04:22:19.855Z,77.01
2018-08-06T04:24:48.145Z,76.94
2018-08-06T04:27:16.400Z,76.42
2018-08-06T04:29:44.640Z,76.18
2018-08-06T04:32:12.923Z,76.10
2018-08-06T04:34:41.216Z,75.12
2018-08-06T04:37:09.448Z,74.85
2018-08-06T04:39:37.685Z,75.95
2018-08-06T04:42:06.201Z,75.66
2018-08-06T04:44:34.645Z,75.22
2018-08-06T04:47:02.905Z,75.36
2018-08-06T04:49:31.228Z,75.13
2018-08-06T04:51:59.493Z,74.78
2018-08-06T04:54:27.756Z,74.59
2018-08-06T04:56:56.033Z,73.92
2018-08-06T04:59:24.280Z,73.32
2018-08-06T05:01:52.552Z,72.13
2018-08-06T05:04:20.840Z,72.16
2018-08-06T05:06:49.116Z,71.93
2018-08-06T05:09:23.905Z,71.40
2018-08-06T05:11:52.180Z,70.65
2018-08-06T05:14:21.501Z,70.68
2018-08-06T05:16:49.858Z,70.11
2018-08-06T05:19:18.204Z,69.60
2018-08-06T05:21:46.477Z,68.58
2018-08-06T05:24:14.754Z,68.90
2018-08-06T05:26:43.017Z,68.92
2018-08-06T05:29:11.293Z,69.07
2018-08-06T05:31:39.589Z,68.50
2018-08-06T05:34:08.057Z,68.20
2018-08-06T05:36:36.353Z,68.28
2018-08-06T05:39:07.589Z,68.10
2018-08-06T05:41:36.060Z,67.23
2018-08-06T05:44:05.192Z,66.24
2018-08-06T05:46:33.488Z,66.01
2018-08-06T05:49:01.742Z,65.09
2018-08-06T05:51:30.005Z,63.93
2018-08-06T05:53:58.285Z,62.49
2018-08-06T05:56:26.613Z,60.89
2018-08-06T05:58:54.869Z,61.28
2018-08-06T06:01:23.133Z,60.25
2018-08-06T06:03:51.413Z,62.00
2018-08-06T06:06:19.689Z,62.53
2018-08-06T06:08:47.950Z,62.56
2018-08-06T06:11:16.377Z,63.13
2018-08-06T06:13:44.716Z,62.34
2018-08-06T06:16:13.064Z,63.25
2018-08-06T06:18:41.341Z,63.11
2018-08-06T06:21:09.625Z,62.48
2018-08-06T06:23:38.209Z,61.72
2018-08-06T06:26:06.533Z,60.42
2018-08-06T06:28:34.859Z,60.29
2018-08-06T06:31:03.348Z,60.51
2018-08-06T06:33:31.629Z,59.46
2018-08-06T06:35:59.881Z,59.06
2018-08-06T06:38:28.166Z,58.71
2018-08-06T06:40:56.452Z,59.17
2018-08-06T06:43:25.157Z,58.36
2018-08-06T06:45:53.436Z,59.07
2018-08-06T06:48:21.691Z,58.91
2018-08-06T06:50:49.958Z,59.66
2018-08-06T06:53:18.245Z,58.40
2018-08-06T06:55:46.494Z,58.20
2018-08-06T06:58:14.793Z,58.38
2018-08-06T07:00:43.241Z,58.34
2018-08-06T07:03:11.516Z,58.15
2018-08-06T07:05:39.765Z,56.94
2018-08-06T07:08:08.296Z,56.33
2018-08-06T07:10:36.681Z,58.33
2018-08-06T07:13:05.037Z,58.36
2018-08-06T07:15:33.361Z,58.63
2018-08-06T07:18:01.641Z,59.53
2018-08-06T07:20:29.953Z,59.12
2018-08-06T07:22:58.206Z,58.00
2018-08-06T07:25:26.502Z,56.37
2018-08-06T07:27:54.813Z,55.85
2018-08-06T07:30:23.077Z,57.26
2018-08-06T07:32:51.356Z,56.48
2018-08-06T07:35:19.689Z,56.19
2018-08-06T07:37:49.014Z,55.80
2018-08-06T07:40:17.286Z,56.33
2018-08-06T07:42:45.569Z,55.73
2018-08-06T07:45:17.225Z,53.59
2018-08-06T07:47:45.969Z,53.95
2018-08-06T07:50:16.105Z,54.07
2018-08-06T07:52:44.372Z,54.44
2018-08-06T07:55:12.657Z,54.96
2018-08-06T07:57:41.110Z,53.78
2018-08-06T08:00:12.792Z,53.23
2018-08-06T08:02:41.465Z,54.10
2018-08-06T08:05:11.904Z,54.54
2018-08-06T08:07:40.582Z,53.95
2018-08-06T08:10:11.696Z,53.27
2018-08-06T08:12:40.085Z,53.05
2018-08-06T08:15:14.540Z,51.95
2018-08-06T08:17:43.700Z,50.41
2018-08-06T08:20:13.878Z,50.17
2018-08-06T08:22:42.497Z,50.42
2018-08-06T08:25:14.376Z,50.43
2018-08-06T08:27:42.644Z,49.45
2018-08-06T08:30:12.516Z,49.18
2018-08-06T08:32:40.818Z,47.96
2018-08-06T08:35:09.600Z,50.14
2018-08-06T08:37:37.949Z,48.92
2018-08-06T08:40:08.449Z,48.99
2018-08-06T08:42:36.759Z,49.26
2018-08-06T08:45:06.872Z,48.06
2018-08-06T08:47:35.173Z,47.87
2018-08-06T08:50:03.488Z,46.83
2018-08-06T08:52:31.923Z,45.88
2018-08-06T08:55:00.209Z,44.86
2018-08-06T08:57:28.544Z,45.21
2018-08-06T08:59:56.796Z,46.25
2018-08-06T09:02:25.065Z,44.39
2018-08-06T09:04:53.449Z,43.79
2018-08-06T09:07:21.786Z,42.81
2018-08-06T09:09:49.965Z,42.09
2018-08-06T09:12:18.340Z,43.11
2018-08-06T09:14:46.699Z,42.65
2018-08-06T09:17:15.254Z,42.35
2018-08-06T09:19:43.533Z,43.50
2018-08-06T09:22:11.857Z,43.00
2018-08-06T09:24:40.098Z,42.01
2018-08-06T09:27:08.357Z,41.05
2018-08-06T09:29:36.665Z,42.39
2018-08-06T09:32:04.928Z,41.90
2018-08-06T09:34:33.215Z,42.40
2018-08-06T09:37:01.482Z,41.47
2018-08-06T09:39:29.801Z,40.41
2018-08-06T09:41:58.049Z,39.50
2018-08-06T09:44:26.385Z,39.81
2018-08-06T09:46:54.704Z,38.86
2018-08-06T09:49:23.040Z,38.68
2018-08-06T09:51:51.359Z,37.21
2018-08-06T09:54:19.644Z,37.03
2018-08-06T09:56:47.897Z,36.67
2018-08-06T09:59:16.202Z,37.38
2018-08-06T10:01:49.628Z,36.67
2018-08-06T10:04:17.916Z,37.71
2018-08-06T10:06:46.365Z,37.74
2018-08-06T10:09:14.465Z,37.63
2018-08-06T10:11:42.748Z,35.29
2018-08-06T10:14:11.041Z,37.46
2018-08-06T10:16:39.345Z,36.47
2018-08-06T10:19:07.719Z,35.29
2018-08-06T10:21:36.261Z,35.38
2018-08-06T10:24:04.673Z,35.28
2018-08-06T10:26:32.993Z,36.29
2018-08-06T10:29:01.233Z,36.55
2018-08-06T10:31:29.507Z,35.46
2018-08-06T10:33:57.789Z,36.16
2018-08-06T10:36:26.329Z,35.25
2018-08-06T10:38:54.784Z,35.77
2018-08-06T10:41:23.061Z,35.63
2018-08-06T10:43:51.297Z,35.18
2018-08-06T10:46:19.578Z,35.06
2018-08-06T10:48:47.809Z,36.01
2018-08-06T10:51:16.094Z,35.50
2018-08-06T10:53:44.357Z,34.72
2018-08-06T10:56:12.705Z,34.27
2018-08-06T10:58:40.965Z,34.86
2018-08-06T11:01:09.253Z,35.92
2018-08-06T11:03:37.488Z,35.19
2018-08-06T11:06:05.908Z,34.19
2018-08-06T11:08:34.145Z,33.87
2018-08-06T11:11:02.380Z,34.65
2018-08-06T11:13:30.657Z,33.76
2018-08-06T11:15:58.901Z,35.00
2018-08-06T11:18:27.196Z,36.15
2018-08-06T11:20:55.462Z,33.05
2018-08-06T11:23:23.721Z,34.57
2018-08-06T11:25:51.968Z,34.22
2018-08-06T11:28:20.287Z,34.06
2018-08-06T11:30:48.530Z,33.75
2018-08-06T11:33:16.805Z,34.18
2018-08-06T11:35:45.072Z,32.93
2018-08-06T11:38:13.381Z,32.85
2018-08-06T11:40:41.686Z,32.45
2018-08-06T11:43:10.877Z,32.08
2018-08-06T11:45:39.145Z,32.84
2018-08-06T11:48:07.436Z,30.75
2018-08-06T11:50:35.689Z,31.50
2018-08-06T11:53:03.988Z,32.23
2018-08-06T11:55:32.245Z,31.74
2018-08-06T11:58:00.528Z,32.08
2018-08-06T12:00:28.852Z,31.38
2018-08-06T12:02:57.228Z,30.79
2018-08-06T12:05:25.512Z,31.06
2018-08-06T12:07:53.776Z,31.90
2018-08-06T12:10:22.093Z,31.48
2018-08-06T12:12:50.720Z,30.99
2018-08-06T12:15:19.045Z,31.47
2018-08-06T12:17:47.259Z,31.36
2018-08-06T12:20:18.064Z,30.41
2018-08-06T12:22:47.513Z,28.75
2018-08-06T12:25:16.648Z,29.58
2018-08-06T12:27:45.612Z,30.85
2018-08-06T12:30:16.256Z,29.95
2018-08-06T12:32:45.232Z,29.83
2018-08-06T12:35:14.045Z,30.44
2018-08-06T12:37:42.381Z,29.14
2018-08-06T12:40:13.255Z,28.97
2018-08-06T12:42:41.808Z,27.92
2018-08-06T12:45:11.686Z,27.67
2018-08-06T12:47:40.404Z,28.53
2018-08-06T12:50:10.052Z,28.04
2018-08-06T12:52:39.208Z,27.96
2018-08-06T12:55:08.837Z,27.66
2018-08-06T12:57:37.613Z,27.90
2018-08-06T13:00:11.361Z,27.01
2018-08-06T13:02:39.656Z,26.08
2018-08-06T13:05:07.947Z,25.28
2018-08-06T13:07:36.229Z,25.62
2018-08-06T13:10:04.790Z,26.35
2018-08-06T13:12:33.436Z,27.72
2018-08-06T13:15:01.695Z,27.79
2018-08-06T13:17:29.991Z,27.66
2018-08-06T13:19:58.305Z,27.16
2018-08-06T13:22:26.649Z,26.03
2018-08-06T13:24:55.287Z,25.87
2018-08-06T13:27:23.613Z,25.54
2018-08-06T13:29:51.853Z,25.49
2018-08-06T13:32:20.133Z,25.70
2018-08-06T13:34:48.384Z,24.75
2018-08-06T13:37:16.772Z,25.69
2018-08-06T13:39:45.099Z,26.17
2018-08-06T13:42:13.421Z,25.72
2018-08-06T13:44:42.191Z,25.29
2018-08-06T13:47:10.511Z,24.17
2018-08-06T13:49:38.784Z,22.55
2018-08-06T13:52:07.326Z,19.69
2018-08-06T13:54:35.597Z,20.74
2018-08-06T13:57:03.902Z,19.24
2018-08-06T13:59:32.344Z,18.23
2018-08-06T14:02:00.508Z,16.19
2018-08-06T14:04:28.805Z,16.94
2018-08-06T14:06:57.075Z,16.44
2018-08-06T14:09:25.429Z,16.30
2018-08-06T14:11:53.686Z,15.19
2018-08-06T14:14:21.981Z,14.90
2018-08-06T14:16:50.313Z,14.96
2018-08-06T14:19:18.580Z,13.09
2018-08-06T14:21:46.849Z,11.09
2018-08-06T14:24:15.165Z,10.22
2018-08-06T14:26:43.445Z,10.38
2018-08-06T14:29:11.741Z,10.25
2018-08-06T14:31:40.141Z,11.48
2018-08-06T14:34:08.447Z,11.36
2018-08-06T14:36:36.677Z,11.47
2018-08-06T14:39:08.591Z,10.26
2018-08-06T14:41:36.903Z,9.31
2018-08-06T14:44:06.221Z,7.78
2018-08-06T14:46:34.957Z,7.02
2018-08-06T14:49:03.352Z,7.37
2018-08-06T14:51:31.636Z,6.38
2018-08-06T14:53:59.893Z,6.60
2018-08-06T14:56:28.184Z,6.59
2018-08-06T14:58:56.445Z,8.86
2018-08-06T15:01:24.761Z,9.35
2018-08-06T15:03:53.089Z,8.43
2018-08-06T15:06:21.905Z,8.19
2018-08-06T15:08:50.369Z,8.74
2018-08-06T15:11:18.718Z,8.47
2018-08-06T15:13:47.333Z,10.70
2018-08-06T15:16:15.649Z,9.58
2018-08-06T15:18:43.915Z,10.56
2018-08-06T15:21:12.238Z,11.66
2018-08-06T15:23:40.519Z,10.13
2018-08-06T15:26:08.837Z,10.20
2018-08-06T15:28:37.113Z,12.57
2018-08-06T15:31:05.429Z,11.94
2018-08-06T15:33:33.797Z,11.32
2018-08-06T15:36:02.215Z,10.44
2018-08-06T15:38:30.481Z,10.90
2018-08-06T15:40:58.825Z,9.36
2018-08-06T15:43:27.109Z,8.97
2018-08-06T15:45:55.370Z,10.69
2018-08-06T15:48:23.666Z,10.16
2018-08-06T15:50:51.969Z,9.61
2018-08-06T15:53:21.288Z,8.25
2018-08-06T15:55:49.680Z,8.47
2018-08-06T15:58:17.978Z,10.02
2018-08-06T16:00:46.314Z,9.14
2018-08-06T16:03:14.593Z,10.27
2018-08-06T16:05:42.880Z,11.90
2018-08-06T16:08:11.193Z,14.83
2018-08-06T16:10:39.466Z,15.92
2018-08-06T16:13:07.765Z,13.81
2018-08-06T16:15:36.015Z,12.59
2018-08-06T16:18:04.373Z,12.28
2018-08-06T16:20:32.560Z,11.52
2018-08-06T16:23:00.880Z,10.69
2018-08-06T16:25:29.204Z,9.80
2018-08-06T16:27:58.605Z,8.97
2018-08-06T16:30:27.256Z,11.18
2018-08-06T16:32:55.617Z,10.92
2018-08-06T16:35:24.623Z,11.16
2018-08-06T16:37:54.770Z,10.98
2018-08-06T16:40:23.034Z,10.08
2018-08-06T16:42:51.859Z,10.09
2018-08-06T16:45:20.583Z,12.28
2018-08-06T16:47:48.924Z,12.43
2018-08-06T16:50:17.997Z,12.83
2018-08-06T16:52:46.555Z,13.48
2018-08-06T16:55:14.899Z,13.64
2018-08-06T16:57:43.328Z,16.27
2018-08-06T17:00:15.472Z,17.83
2018-08-06T17:02:44.065Z,18.29
2018-08-06T17:05:13.393Z,16.08
2018-08-06T17:07:42.549Z,14.96
2018-08-06T17:10:14.278Z,15.21
2018-08-06T17:12:43.813Z,16.04
2018-08-06T17:15:13.420Z,16.39
2018-08-06T17:17:42.117Z,18.13
2018-08-06T17:20:15.145Z,18.67
2018-08-06T17:22:44.603Z,21.49
2018-08-06T17:25:13.323Z,23.79
2018-08-06T17:27:41.988Z,22.81
2018-08-06T17:30:11.161Z,22.74
2018-08-06T17:32:39.757Z,22.98
2018-08-06T17:35:09.725Z,22.64
2018-08-06T17:37:38.149Z,22.87
2018-08-06T17:40:15.365Z,24.15
2018-08-06T17:42:44.880Z,28.82
2018-08-06T17:45:16.461Z,30.53
2018-08-06T17:47:44.780Z,33.15
2018-08-06T17:50:15.245Z,33.31
2018-08-06T17:52:45.158Z,33.35
2018-08-06T17:55:15.058Z,33.88
2018-08-06T17:57:43.374Z,34.92
2018-08-06T18:00:12.177Z,35.60
2018-08-06T18:02:40.493Z,34.97
2018-08-06T18:05:10.604Z,34.93
2018-08-06T18:07:39.258Z,36.05
2018-08-06T18:10:09.541Z,37.65
2018-08-06T18:12:37.859Z,38.25
2018-08-06T18:15:06.750Z,38.39
2018-08-06T18:17:35.376Z,39.46
2018-08-06T18:20:03.951Z,40.18
2018-08-06T18:22:32.314Z,40.05
2018-08-06T18:25:00.607Z,41.33
2018-08-06T18:27:28.989Z,41.25
2018-08-06T18:29:57.270Z,42.66
2018-08-06T18:32:25.689Z,42.20
2018-08-06T18:34:53.925Z,40.46
2018-08-06T18:37:22.189Z,39.64
2018-08-06T18:39:50.636Z,38.07
2018-08-06T18:42:18.930Z,37.23
2018-08-06T18:44:47.203Z,37.81
2018-08-06T18:47:15.477Z,37.80
2018-08-06T18:49:43.769Z,38.38
2018-08-06T18:52:12.046Z,38.46
2018-08-06T18:54:40.380Z,38.77
2018-08-06T18:57:08.664Z,39.52
2018-08-06T18:59:36.949Z,39.13
2018-08-06T19:02:05.445Z,40.05
2018-08-06T19:04:33.813Z,41.10
2018-08-06T19:07:02.131Z,40.60
2018-08-06T19:09:30.485Z,41.61
2018-08-06T19:12:04.985Z,41.46
2018-08-06T19:14:33.300Z,41.90
2018-08-06T19:17:01.637Z,42.54
2018-08-06T19:19:30.269Z,43.04
2018-08-06T19:21:58.932Z,43.44
2018-08-06T19:24:32.556Z,43.88
2018-08-06T19:27:00.858Z,43.69
2018-08-06T19:29:29.185Z,44.08
2018-08-06T19:31:57.525Z,44.94
2018-08-06T19:34:25.820Z,45.19
2018-08-06T19:37:00.440Z,45.75
2018-08-06T19:39:28.721Z,45.67
2018-08-06T19:41:57.033Z,45.61
2018-08-06T19:44:26.290Z,46.35
2018-08-06T19:46:54.598Z,46.03
2018-08-06T19:49:28.105Z,46.61
2018-08-06T19:51:56.456Z,46.71
2018-08-06T19:54:24.731Z,46.61
2018-08-06T19:56:54.084Z,46.67
2018-08-06T19:59:22.339Z,47.55
2018-08-06T20:01:50.725Z,47.07
2018-08-06T20:04:18.999Z,47.63
2018-08-06T20:06:47.280Z,48.02
2018-08-06T20:09:15.554Z,48.22
2018-08-06T20:11:43.841Z,47.08
2018-08-06T20:14:12.174Z,47.75
2018-08-06T20:16:40.438Z,48.41
2018-08-06T20:19:09.545Z,48.52
2018-08-06T20:21:37.801Z,48.79
2018-08-06T20:24:06.847Z,49.18
2018-08-06T20:26:36.189Z,49.02
2018-08-06T20:29:04.479Z,49.43
2018-08-06T20:31:33.944Z,49.59
2018-08-06T20:34:02.375Z,49.15
2018-08-06T20:36:30.630Z,49.06
2018-08-06T20:39:00.000Z,49.41
2018-08-06T20:41:28.294Z,49.44
2018-08-06T20:43:56.570Z,50.17
2018-08-06T20:46:24.833Z,50.23
2018-08-06T20:48:53.104Z,50.10
2018-08-06T20:51:21.364Z,50.26
2018-08-06T20:53:49.696Z,50.01
2018-08-06T20:56:17.997Z,50.28
2018-08-06T20:58:46.411Z,50.45
2018-08-06T21:01:14.674Z,50.97
2018-08-06T21:03:42.996Z,50.82
2018-08-06T21:06:11.409Z,49.82
2018-08-06T21:08:39.732Z,49.90
2018-08-06T21:11:08.137Z,50.41
2018-08-06T21:13:36.413Z,50.89
2018-08-06T21:16:04.699Z,50.88
2018-08-06T21:18:33.014Z,51.34
2018-08-06T21:21:01.421Z,51.56
2018-08-06T21:23:29.712Z,52.01
2018-08-06T21:25:58.049Z,51.49
2018-08-06T21:28:26.368Z,52.20
2018-08-06T21:30:54.660Z,51.85
2018-08-06T21:33:23.029Z,52.00
2018-08-06T21:35:51.422Z,52.63
2018-08-06T21:38:19.789Z,52.91
2018-08-06T21:40:48.125Z,52.67
2018-08-06T21:43:16.449Z,52.53
2018-08-06T21:45:44.854Z,52.91
2018-08-06T21:48:13.080Z,52.98
2018-08-06T21:50:41.473Z,53.22
2018-08-06T21:53:10.654Z,52.91
2018-08-06T21:55:39.150Z,53.62
2018-08-06T21:58:07.443Z,53.11
2018-08-06T22:00:40.227Z,53.48
2018-08-06T22:03:10.411Z,53.96
2018-08-06T22:05:38.711Z,53.65
2018-08-06T22:08:07.053Z,53.93
2018-08-06T22:10:35.361Z,54.27
2018-08-06T22:13:03.790Z,54.16
2018-08-06T22:15:32.085Z,54.89
2018-08-06T22:18:00.433Z,54.77
2018-08-06T22:20:28.732Z,55.17
2018-08-06T22:22:57.041Z,55.23
2018-08-06T22:25:25.645Z,55.84
2018-08-06T22:27:54.092Z,55.83
2018-08-06T22:30:27.877Z,55.86
2018-08-06T22:32:57.303Z,55.84
2018-08-06T22:35:26.682Z,55.80
2018-08-06T22:37:54.989Z,56.27
2018-08-06T22:40:23.265Z,56.74
2018-08-06T22:42:51.669Z,56.35
2018-08-06T22:45:19.929Z,56.66
2018-08-06T22:47:53.689Z,56.76
2018-08-06T22:50:21.936Z,56.47
2018-08-06T22:52:51.300Z,56.50
2018-08-06T22:55:19.613Z,56.64
2018-08-06T22:57:48.945Z,56.96
2018-08-06T23:00:17.548Z,56.83
2018-08-06T23:02:46.092Z,57.79
2018-08-06T23:05:16.067Z,57.46
2018-08-06T23:07:44.330Z,57.37
2018-08-06T23:10:18.281Z,57.73
2018-08-06T23:12:47.594Z,58.30
2018-08-06T23:15:16.874Z,58.69
2018-08-06T23:17:45.585Z,59.11
2018-08-06T23:20:13.882Z,59.21
2018-08-06T23:22:42.459Z,59.44
2018-08-06T23:25:10.802Z,59.54
2018-08-06T23:27:39.591Z,60.34
2018-08-06T23:30:10.080Z,60.09
2018-08-06T23:32:38.607Z,59.98
2018-08-06T23:35:09.606Z,60.14
2018-08-06T23:37:38.117Z,60.58
2018-08-06T23:40:07.137Z,60.88
2018-08-06T23:42:37.513Z,60.62
2018-08-06T23:45:07.769Z,60.96
2018-08-06T23:47:36.265Z,61.78
2018-08-06T23:50:06.037Z,61.24
2018-08-06T23:52:34.285Z,62.02
2018-08-06T23:55:02.597Z,61.63
2018-08-06T23:57:30.862Z,61.84
2018-08-06T23:59:59.286Z,62.11
